sensor_id;sensor_type;location;lat;lon;timestamp;P1;durP1;ratioP1;P2;durP2;ratioP2
38465;SDS011;24244;51.950;5.902;2024-02-15T00:02:24;18.80;;;10.68;;
38465;SDS011;24244;51.950;5.902;2024-02-15T00:04:50;18.00;;;9.88;;
38465;SDS011;24244;51.950;5.902;2024-02-15T00:07:17;20.13;;;9.73;;
38465;SDS011;24244;51.950;5.902;2024-02-15T00:09:49;18.38;;;10.70;;
38465;SDS011;24244;51.950;5.902;2024-02-15T00:12:16;21.55;;;10.55;;
38465;SDS011;24244;51.950;5.902;2024-02-15T00:14:42;18.70;;;9.57;;
38465;SDS011;24244;51.950;5.902;2024-02-15T00:17:09;18.58;;;10.45;;
38465;SDS011;24244;51.950;5.902;2024-02-15T00:19:39;24.33;;;9.98;;
38465;SDS011;24244;51.950;5.902;2024-02-15T00:22:08;19.90;;;9.23;;
38465;SDS011;24244;51.950;5.902;2024-02-15T00:24:36;21.13;;;10.63;;
38465;SDS011;24244;51.950;5.902;2024-02-15T00:27:03;20.02;;;9.75;;
38465;SDS011;24244;51.950;5.902;2024-02-15T00:29:30;20.50;;;10.90;;
38465;SDS011;24244;51.950;5.902;2024-02-15T00:31:58;24.30;;;10.95;;
38465;SDS011;24244;51.950;5.902;2024-02-15T00:34:25;20.65;;;11.55;;
38465;SDS011;24244;51.950;5.902;2024-02-15T00:36:54;22.85;;;12.00;;
38465;SDS011;24244;51.950;5.902;2024-02-15T00:39:21;20.90;;;10.98;;
38465;SDS011;24244;51.950;5.902;2024-02-15T00:41:48;26.75;;;13.98;;
38465;SDS011;24244;51.950;5.902;2024-02-15T00:44:16;26.73;;;12.15;;
38465;SDS011;24244;51.950;5.902;2024-02-15T00:46:44;25.13;;;12.57;;
38465;SDS011;24244;51.950;5.902;2024-02-15T00:49:10;22.65;;;12.02;;
38465;SDS011;24244;51.950;5.902;2024-02-15T00:51:38;25.25;;;12.90;;
38465;SDS011;24244;51.950;5.902;2024-02-15T00:54:06;24.30;;;12.73;;
38465;SDS011;24244;51.950;5.902;2024-02-15T00:56:33;28.80;;;13.02;;
38465;SDS011;24244;51.950;5.902;2024-02-15T00:58:59;24.80;;;12.75;;
38465;SDS011;24244;51.950;5.902;2024-02-15T01:01:29;28.00;;;14.38;;
38465;SDS011;24244;51.950;5.902;2024-02-15T01:03:57;26.02;;;12.20;;
38465;SDS011;24244;51.950;5.902;2024-02-15T01:06:23;22.70;;;11.40;;
38465;SDS011;24244;51.950;5.902;2024-02-15T01:08:50;24.40;;;12.23;;
38465;SDS011;24244;51.950;5.902;2024-02-15T01:11:19;21.17;;;10.82;;
38465;SDS011;24244;51.950;5.902;2024-02-15T01:13:46;23.17;;;13.05;;
38465;SDS011;24244;51.950;5.902;2024-02-15T01:16:12;21.05;;;10.82;;
38465;SDS011;24244;51.950;5.902;2024-02-15T01:18:39;24.05;;;10.40;;
38465;SDS011;24244;51.950;5.902;2024-02-15T01:21:06;21.35;;;11.07;;
38465;SDS011;24244;51.950;5.902;2024-02-15T01:23:34;20.13;;;11.00;;
38465;SDS011;24244;51.950;5.902;2024-02-15T01:26:01;18.00;;;10.48;;
38465;SDS011;24244;51.950;5.902;2024-02-15T01:28:30;21.80;;;11.30;;
38465;SDS011;24244;51.950;5.902;2024-02-15T01:30:56;17.88;;;10.27;;
38465;SDS011;24244;51.950;5.902;2024-02-15T01:33:23;18.70;;;11.55;;
38465;SDS011;24244;51.950;5.902;2024-02-15T01:35:50;18.60;;;10.55;;
38465;SDS011;24244;51.950;5.902;2024-02-15T01:38:17;22.65;;;9.82;;
38465;SDS011;24244;51.950;5.902;2024-02-15T01:40:43;18.92;;;9.70;;
38465;SDS011;24244;51.950;5.902;2024-02-15T01:43:12;21.15;;;10.60;;
38465;SDS011;24244;51.950;5.902;2024-02-15T01:45:40;20.55;;;10.23;;
38465;SDS011;24244;51.950;5.902;2024-02-15T01:48:08;18.85;;;10.32;;
38465;SDS011;24244;51.950;5.902;2024-02-15T01:50:36;18.60;;;9.90;;
38465;SDS011;24244;51.950;5.902;2024-02-15T01:53:03;19.92;;;9.77;;
38465;SDS011;24244;51.950;5.902;2024-02-15T01:55:33;22.63;;;9.95;;
38465;SDS011;24244;51.950;5.902;2024-02-15T01:58:00;19.42;;;10.25;;
38465;SDS011;24244;51.950;5.902;2024-02-15T02:00:27;17.90;;;9.25;;
38465;SDS011;24244;51.950;5.902;2024-02-15T02:02:56;18.10;;;10.45;;
38465;SDS011;24244;51.950;5.902;2024-02-15T02:05:26;18.60;;;9.13;;
38465;SDS011;24244;51.950;5.902;2024-02-15T02:07:54;20.23;;;9.55;;
38465;SDS011;24244;51.950;5.902;2024-02-15T02:10:25;24.08;;;9.57;;
38465;SDS011;24244;51.950;5.902;2024-02-15T02:12:53;18.33;;;9.23;;
38465;SDS011;24244;51.950;5.902;2024-02-15T02:15:21;24.75;;;9.65;;
38465;SDS011;24244;51.950;5.902;2024-02-15T02:17:48;15.48;;;8.38;;
38465;SDS011;24244;51.950;5.902;2024-02-15T02:20:17;15.30;;;8.95;;
38465;SDS011;24244;51.950;5.902;2024-02-15T02:22:43;19.83;;;9.93;;
38465;SDS011;24244;51.950;5.902;2024-02-15T02:25:14;19.65;;;9.57;;
38465;SDS011;24244;51.950;5.902;2024-02-15T02:27:42;17.50;;;8.57;;
38465;SDS011;24244;51.950;5.902;2024-02-15T02:30:12;16.80;;;8.57;;
38465;SDS011;24244;51.950;5.902;2024-02-15T02:32:48;18.77;;;9.00;;
38465;SDS011;24244;51.950;5.902;2024-02-15T02:35:15;22.85;;;9.32;;
38465;SDS011;24244;51.950;5.902;2024-02-15T02:37:46;16.50;;;9.02;;
38465;SDS011;24244;51.950;5.902;2024-02-15T02:40:14;17.85;;;7.88;;
38465;SDS011;24244;51.950;5.902;2024-02-15T02:42:48;21.00;;;8.93;;
38465;SDS011;24244;51.950;5.902;2024-02-15T02:45:16;18.25;;;9.70;;
38465;SDS011;24244;51.950;5.902;2024-02-15T02:47:45;17.25;;;8.75;;
38465;SDS011;24244;51.950;5.902;2024-02-15T02:50:14;13.90;;;8.15;;
38465;SDS011;24244;51.950;5.902;2024-02-15T02:52:41;17.33;;;8.02;;
38465;SDS011;24244;51.950;5.902;2024-02-15T02:55:08;14.32;;;7.75;;
38465;SDS011;24244;51.950;5.902;2024-02-15T02:57:37;18.38;;;9.13;;
38465;SDS011;24244;51.950;5.902;2024-02-15T03:00:05;17.25;;;8.13;;
38465;SDS011;24244;51.950;5.902;2024-02-15T03:02:39;18.30;;;8.88;;
38465;SDS011;24244;51.950;5.902;2024-02-15T03:05:06;16.15;;;8.57;;
38465;SDS011;24244;51.950;5.902;2024-02-15T03:07:35;17.08;;;9.45;;
38465;SDS011;24244;51.950;5.902;2024-02-15T03:10:03;14.55;;;7.90;;
38465;SDS011;24244;51.950;5.902;2024-02-15T03:12:31;20.55;;;8.80;;
38465;SDS011;24244;51.950;5.902;2024-02-15T03:14:59;18.85;;;8.40;;
38465;SDS011;24244;51.950;5.902;2024-02-15T03:17:26;14.85;;;8.43;;
38465;SDS011;24244;51.950;5.902;2024-02-15T03:19:53;18.95;;;9.25;;
38465;SDS011;24244;51.950;5.902;2024-02-15T03:22:19;16.58;;;6.85;;
38465;SDS011;24244;51.950;5.902;2024-02-15T03:24:46;14.25;;;6.60;;
38465;SDS011;24244;51.950;5.902;2024-02-15T03:27:13;14.32;;;7.47;;
38465;SDS011;24244;51.950;5.902;2024-02-15T03:29:40;11.50;;;6.07;;
38465;SDS011;24244;51.950;5.902;2024-02-15T03:32:08;14.80;;;6.15;;
38465;SDS011;24244;51.950;5.902;2024-02-15T03:34:37;13.93;;;7.47;;
38465;SDS011;24244;51.950;5.902;2024-02-15T03:37:05;17.65;;;7.15;;
38465;SDS011;24244;51.950;5.902;2024-02-15T03:39:32;16.02;;;6.45;;
38465;SDS011;24244;51.950;5.902;2024-02-15T03:42:00;14.27;;;6.53;;
38465;SDS011;24244;51.950;5.902;2024-02-15T03:44:27;15.55;;;6.93;;
38465;SDS011;24244;51.950;5.902;2024-02-15T03:46:53;15.10;;;6.00;;
38465;SDS011;24244;51.950;5.902;2024-02-15T03:49:25;10.80;;;6.07;;
38465;SDS011;24244;51.950;5.902;2024-02-15T03:51:53;13.93;;;6.20;;
38465;SDS011;24244;51.950;5.902;2024-02-15T03:54:21;15.18;;;6.47;;
38465;SDS011;24244;51.950;5.902;2024-02-15T03:56:50;12.82;;;6.57;;
38465;SDS011;24244;51.950;5.902;2024-02-15T03:59:22;12.32;;;5.85;;
38465;SDS011;24244;51.950;5.902;2024-02-15T04:01:53;10.63;;;4.95;;
38465;SDS011;24244;51.950;5.902;2024-02-15T04:04:20;11.70;;;6.10;;
38465;SDS011;24244;51.950;5.902;2024-02-15T04:06:49;14.98;;;5.95;;
38465;SDS011;24244;51.950;5.902;2024-02-15T04:09:18;13.52;;;5.03;;
38465;SDS011;24244;51.950;5.902;2024-02-15T04:11:44;12.68;;;6.40;;
38465;SDS011;24244;51.950;5.902;2024-02-15T04:14:16;16.73;;;5.88;;
38465;SDS011;24244;51.950;5.902;2024-02-15T04:16:44;15.88;;;5.88;;
38465;SDS011;24244;51.950;5.902;2024-02-15T04:19:11;8.80;;;4.65;;
38465;SDS011;24244;51.950;5.902;2024-02-15T04:21:39;14.77;;;5.38;;
38465;SDS011;24244;51.950;5.902;2024-02-15T04:24:07;13.13;;;5.53;;
38465;SDS011;24244;51.950;5.902;2024-02-15T04:26:34;10.23;;;5.93;;
38465;SDS011;24244;51.950;5.902;2024-02-15T04:29:03;11.98;;;5.47;;
38465;SDS011;24244;51.950;5.902;2024-02-15T04:31:34;14.90;;;5.32;;
38465;SDS011;24244;51.950;5.902;2024-02-15T04:34:05;12.15;;;4.47;;
38465;SDS011;24244;51.950;5.902;2024-02-15T04:36:32;13.25;;;5.30;;
38465;SDS011;24244;51.950;5.902;2024-02-15T04:39:00;14.18;;;4.60;;
38465;SDS011;24244;51.950;5.902;2024-02-15T04:41:30;12.80;;;5.15;;
38465;SDS011;24244;51.950;5.902;2024-02-15T04:43:57;11.10;;;4.80;;
38465;SDS011;24244;51.950;5.902;2024-02-15T04:46:24;9.77;;;4.95;;
38465;SDS011;24244;51.950;5.902;2024-02-15T04:48:51;11.73;;;4.68;;
38465;SDS011;24244;51.950;5.902;2024-02-15T04:51:18;14.25;;;5.78;;
38465;SDS011;24244;51.950;5.902;2024-02-15T04:53:46;9.82;;;4.82;;
38465;SDS011;24244;51.950;5.902;2024-02-15T04:56:14;10.30;;;4.90;;
38465;SDS011;24244;51.950;5.902;2024-02-15T04:58:43;14.88;;;4.20;;
38465;SDS011;24244;51.950;5.902;2024-02-15T05:01:14;9.90;;;4.13;;
38465;SDS011;24244;51.950;5.902;2024-02-15T05:03:42;9.35;;;3.95;;
38465;SDS011;24244;51.950;5.902;2024-02-15T05:06:09;13.70;;;4.60;;
38465;SDS011;24244;51.950;5.902;2024-02-15T05:08:36;11.95;;;4.70;;
38465;SDS011;24244;51.950;5.902;2024-02-15T05:11:08;7.43;;;3.83;;
38465;SDS011;24244;51.950;5.902;2024-02-15T05:13:41;12.70;;;4.68;;
38465;SDS011;24244;51.950;5.902;2024-02-15T05:16:09;8.75;;;3.90;;
38465;SDS011;24244;51.950;5.902;2024-02-15T05:18:36;12.13;;;4.55;;
38465;SDS011;24244;51.950;5.902;2024-02-15T05:21:04;10.13;;;4.13;;
38465;SDS011;24244;51.950;5.902;2024-02-15T05:23:33;11.15;;;4.78;;
38465;SDS011;24244;51.950;5.902;2024-02-15T05:26:00;8.05;;;3.63;;
38465;SDS011;24244;51.950;5.902;2024-02-15T05:28:27;13.90;;;4.18;;
38465;SDS011;24244;51.950;5.902;2024-02-15T05:31:08;11.57;;;4.22;;
38465;SDS011;24244;51.950;5.902;2024-02-15T05:33:37;14.10;;;3.70;;
38465;SDS011;24244;51.950;5.902;2024-02-15T05:36:09;8.73;;;3.45;;
38465;SDS011;24244;51.950;5.902;2024-02-15T05:38:36;9.73;;;4.28;;
38465;SDS011;24244;51.950;5.902;2024-02-15T05:41:03;13.88;;;4.25;;
38465;SDS011;24244;51.950;5.902;2024-02-15T05:43:30;11.60;;;4.85;;
38465;SDS011;24244;51.950;5.902;2024-02-15T05:46:00;10.77;;;4.85;;
38465;SDS011;24244;51.950;5.902;2024-02-15T05:48:28;7.25;;;3.95;;
38465;SDS011;24244;51.950;5.902;2024-02-15T05:50:55;9.63;;;4.10;;
38465;SDS011;24244;51.950;5.902;2024-02-15T05:53:23;9.40;;;4.72;;
38465;SDS011;24244;51.950;5.902;2024-02-15T05:55:50;14.40;;;4.30;;
38465;SDS011;24244;51.950;5.902;2024-02-15T05:58:17;8.90;;;3.65;;
38465;SDS011;24244;51.950;5.902;2024-02-15T06:00:44;7.72;;;4.70;;
38465;SDS011;24244;51.950;5.902;2024-02-15T06:03:11;11.98;;;3.67;;
38465;SDS011;24244;51.950;5.902;2024-02-15T06:05:40;8.15;;;3.88;;
38465;SDS011;24244;51.950;5.902;2024-02-15T06:08:07;13.57;;;5.15;;
38465;SDS011;24244;51.950;5.902;2024-02-15T06:10:34;7.63;;;3.80;;
38465;SDS011;24244;51.950;5.902;2024-02-15T06:13:01;9.25;;;4.55;;
38465;SDS011;24244;51.950;5.902;2024-02-15T06:15:28;9.23;;;3.92;;
38465;SDS011;24244;51.950;5.902;2024-02-15T06:17:55;9.00;;;3.83;;
38465;SDS011;24244;51.950;5.902;2024-02-15T06:20:21;8.40;;;3.67;;
38465;SDS011;24244;51.950;5.902;2024-02-15T06:22:50;13.23;;;4.18;;
38465;SDS011;24244;51.950;5.902;2024-02-15T06:25:18;10.30;;;3.67;;
38465;SDS011;24244;51.950;5.902;2024-02-15T06:27:48;6.97;;;3.20;;
38465;SDS011;24244;51.950;5.902;2024-02-15T06:30:17;9.60;;;4.00;;
38465;SDS011;24244;51.950;5.902;2024-02-15T06:33:03;8.98;;;3.17;;
38465;SDS011;24244;51.950;5.902;2024-02-15T06:35:49;10.50;;;4.45;;
38465;SDS011;24244;51.950;5.902;2024-02-15T06:38:35;8.13;;;3.25;;
38465;SDS011;24244;51.950;5.902;2024-02-15T06:41:21;9.52;;;4.20;;
38465;SDS011;24244;51.950;5.902;2024-02-15T06:43:52;7.70;;;3.47;;
38465;SDS011;24244;51.950;5.902;2024-02-15T06:46:18;11.80;;;3.05;;
38465;SDS011;24244;51.950;5.902;2024-02-15T06:48:45;10.43;;;3.80;;
38465;SDS011;24244;51.950;5.902;2024-02-15T06:51:13;10.73;;;4.32;;
38465;SDS011;24244;51.950;5.902;2024-02-15T06:53:43;7.72;;;4.38;;
38465;SDS011;24244;51.950;5.902;2024-02-15T06:56:10;7.07;;;4.35;;
38465;SDS011;24244;51.950;5.902;2024-02-15T06:58:38;8.00;;;3.65;;
38465;SDS011;24244;51.950;5.902;2024-02-15T07:01:06;10.32;;;4.00;;
38465;SDS011;24244;51.950;5.902;2024-02-15T07:03:34;8.57;;;4.30;;
38465;SDS011;24244;51.950;5.902;2024-02-15T07:06:01;11.45;;;3.75;;
38465;SDS011;24244;51.950;5.902;2024-02-15T07:08:29;8.52;;;3.60;;
38465;SDS011;24244;51.950;5.902;2024-02-15T07:10:59;9.52;;;3.97;;
38465;SDS011;24244;51.950;5.902;2024-02-15T07:13:26;8.75;;;3.85;;
38465;SDS011;24244;51.950;5.902;2024-02-15T07:15:53;6.82;;;3.13;;
38465;SDS011;24244;51.950;5.902;2024-02-15T07:18:20;7.50;;;4.45;;
38465;SDS011;24244;51.950;5.902;2024-02-15T07:20:54;10.65;;;4.30;;
38465;SDS011;24244;51.950;5.902;2024-02-15T07:23:23;10.40;;;4.13;;
38465;SDS011;24244;51.950;5.902;2024-02-15T07:25:51;8.20;;;4.28;;
38465;SDS011;24244;51.950;5.902;2024-02-15T07:28:21;8.25;;;4.07;;
38465;SDS011;24244;51.950;5.902;2024-02-15T07:30:51;8.07;;;4.20;;
38465;SDS011;24244;51.950;5.902;2024-02-15T07:33:18;8.13;;;3.80;;
38465;SDS011;24244;51.950;5.902;2024-02-15T07:35:47;8.45;;;3.92;;
38465;SDS011;24244;51.950;5.902;2024-02-15T07:38:17;8.20;;;4.15;;
38465;SDS011;24244;51.950;5.902;2024-02-15T07:40:44;6.55;;;4.07;;
38465;SDS011;24244;51.950;5.902;2024-02-15T07:43:11;9.82;;;3.60;;
38465;SDS011;24244;51.950;5.902;2024-02-15T07:45:39;8.07;;;3.47;;
38465;SDS011;24244;51.950;5.902;2024-02-15T07:48:06;8.93;;;3.80;;
38465;SDS011;24244;51.950;5.902;2024-02-15T07:50:33;6.75;;;3.17;;
38465;SDS011;24244;51.950;5.902;2024-02-15T07:53:03;8.13;;;4.15;;
38465;SDS011;24244;51.950;5.902;2024-02-15T07:55:33;6.95;;;4.32;;
38465;SDS011;24244;51.950;5.902;2024-02-15T07:58:00;6.57;;;4.03;;
38465;SDS011;24244;51.950;5.902;2024-02-15T08:00:28;9.55;;;4.03;;
38465;SDS011;24244;51.950;5.902;2024-02-15T08:02:57;8.05;;;4.05;;
38465;SDS011;24244;51.950;5.902;2024-02-15T08:05:25;8.88;;;3.63;;
38465;SDS011;24244;51.950;5.902;2024-02-15T08:07:53;8.25;;;4.10;;
38465;SDS011;24244;51.950;5.902;2024-02-15T08:10:24;8.60;;;4.05;;
38465;SDS011;24244;51.950;5.902;2024-02-15T08:12:51;7.00;;;3.35;;
38465;SDS011;24244;51.950;5.902;2024-02-15T08:15:19;8.85;;;3.47;;
38465;SDS011;24244;51.950;5.902;2024-02-15T08:17:46;7.20;;;4.07;;
38465;SDS011;24244;51.950;5.902;2024-02-15T08:20:14;6.70;;;2.97;;
38465;SDS011;24244;51.950;5.902;2024-02-15T08:22:48;6.50;;;3.50;;
38465;SDS011;24244;51.950;5.902;2024-02-15T08:25:15;5.82;;;2.90;;
38465;SDS011;24244;51.950;5.902;2024-02-15T08:27:42;5.18;;;2.97;;
38465;SDS011;24244;51.950;5.902;2024-02-15T08:30:11;9.25;;;3.90;;
38465;SDS011;24244;51.950;5.902;2024-02-15T08:32:39;6.03;;;3.35;;
38465;SDS011;24244;51.950;5.902;2024-02-15T08:35:08;6.43;;;3.00;;
38465;SDS011;24244;51.950;5.902;2024-02-15T08:37:38;5.70;;;3.47;;
38465;SDS011;24244;51.950;5.902;2024-02-15T08:40:06;5.95;;;3.30;;
38465;SDS011;24244;51.950;5.902;2024-02-15T08:42:37;5.82;;;2.75;;
38465;SDS011;24244;51.950;5.902;2024-02-15T08:45:05;7.20;;;3.60;;
38465;SDS011;24244;51.950;5.902;2024-02-15T08:47:36;7.57;;;3.00;;
38465;SDS011;24244;51.950;5.902;2024-02-15T08:50:04;4.72;;;3.17;;
38465;SDS011;24244;51.950;5.902;2024-02-15T08:52:32;7.22;;;3.30;;
38465;SDS011;24244;51.950;5.902;2024-02-15T08:55:00;4.72;;;2.60;;
38465;SDS011;24244;51.950;5.902;2024-02-15T08:57:27;5.75;;;3.05;;
38465;SDS011;24244;51.950;5.902;2024-02-15T08:59:54;6.22;;;3.55;;
38465;SDS011;24244;51.950;5.902;2024-02-15T09:02:21;6.65;;;3.28;;
38465;SDS011;24244;51.950;5.902;2024-02-15T09:04:48;5.63;;;3.65;;
38465;SDS011;24244;51.950;5.902;2024-02-15T09:07:15;8.45;;;3.95;;
38465;SDS011;24244;51.950;5.902;2024-02-15T09:09:42;7.95;;;3.35;;
38465;SDS011;24244;51.950;5.902;2024-02-15T09:12:10;6.63;;;3.15;;
38465;SDS011;24244;51.950;5.902;2024-02-15T09:14:38;7.18;;;4.03;;
38465;SDS011;24244;51.950;5.902;2024-02-15T09:17:05;6.30;;;3.65;;
38465;SDS011;24244;51.950;5.902;2024-02-15T09:19:34;10.70;;;3.70;;
38465;SDS011;24244;51.950;5.902;2024-02-15T09:22:01;6.95;;;3.88;;
38465;SDS011;24244;51.950;5.902;2024-02-15T09:24:30;6.10;;;2.55;;
38465;SDS011;24244;51.950;5.902;2024-02-15T09:26:59;8.07;;;3.10;;
38465;SDS011;24244;51.950;5.902;2024-02-15T09:29:28;6.00;;;3.67;;
38465;SDS011;24244;51.950;5.902;2024-02-15T09:31:59;7.63;;;3.72;;
38465;SDS011;24244;51.950;5.902;2024-02-15T09:34:28;9.88;;;3.17;;
38465;SDS011;24244;51.950;5.902;2024-02-15T09:36:55;6.18;;;3.28;;
38465;SDS011;24244;51.950;5.902;2024-02-15T09:39:22;6.72;;;3.03;;
38465;SDS011;24244;51.950;5.902;2024-02-15T09:41:50;5.13;;;2.47;;
38465;SDS011;24244;51.950;5.902;2024-02-15T09:44:23;6.35;;;2.70;;
38465;SDS011;24244;51.950;5.902;2024-02-15T09:46:59;6.30;;;3.15;;
38465;SDS011;24244;51.950;5.902;2024-02-15T09:49:33;8.98;;;2.78;;
38465;SDS011;24244;51.950;5.902;2024-02-15T09:52:02;6.90;;;3.22;;
38465;SDS011;24244;51.950;5.902;2024-02-15T09:54:30;5.78;;;2.78;;
38465;SDS011;24244;51.950;5.902;2024-02-15T09:57:00;5.40;;;2.70;;
38465;SDS011;24244;51.950;5.902;2024-02-15T09:59:29;7.28;;;3.05;;
38465;SDS011;24244;51.950;5.902;2024-02-15T10:01:58;7.57;;;3.08;;
38465;SDS011;24244;51.950;5.902;2024-02-15T10:04:25;7.15;;;3.00;;
38465;SDS011;24244;51.950;5.902;2024-02-15T10:06:52;6.28;;;2.67;;
38465;SDS011;24244;51.950;5.902;2024-02-15T10:09:26;6.35;;;2.58;;
38465;SDS011;24244;51.950;5.902;2024-02-15T10:11:57;6.60;;;2.97;;
38465;SDS011;24244;51.950;5.902;2024-02-15T10:14:25;8.32;;;3.65;;
38465;SDS011;24244;51.950;5.902;2024-02-15T10:16:52;4.60;;;2.50;;
38465;SDS011;24244;51.950;5.902;2024-02-15T10:19:21;10.40;;;3.35;;
38465;SDS011;24244;51.950;5.902;2024-02-15T10:21:52;6.90;;;2.75;;
38465;SDS011;24244;51.950;5.902;2024-02-15T10:24:22;8.10;;;2.80;;
38465;SDS011;24244;51.950;5.902;2024-02-15T10:26:50;6.40;;;3.20;;
38465;SDS011;24244;51.950;5.902;2024-02-15T10:29:19;6.13;;;2.28;;
38465;SDS011;24244;51.950;5.902;2024-02-15T10:31:53;6.85;;;2.63;;
38465;SDS011;24244;51.950;5.902;2024-02-15T10:34:22;8.75;;;3.17;;
38465;SDS011;24244;51.950;5.902;2024-02-15T10:36:49;5.15;;;2.55;;
38465;SDS011;24244;51.950;5.902;2024-02-15T10:39:17;9.15;;;3.50;;
38465;SDS011;24244;51.950;5.902;2024-02-15T10:41:48;8.70;;;2.72;;
38465;SDS011;24244;51.950;5.902;2024-02-15T10:44:17;7.75;;;3.20;;
38465;SDS011;24244;51.950;5.902;2024-02-15T10:46:45;8.60;;;3.42;;
38465;SDS011;24244;51.950;5.902;2024-02-15T10:49:13;10.35;;;3.47;;
38465;SDS011;24244;51.950;5.902;2024-02-15T10:51:43;8.20;;;2.90;;
38465;SDS011;24244;51.950;5.902;2024-02-15T10:54:11;9.85;;;3.40;;
38465;SDS011;24244;51.950;5.902;2024-02-15T10:56:43;7.88;;;3.58;;
38465;SDS011;24244;51.950;5.902;2024-02-15T10:59:16;8.32;;;3.47;;
38465;SDS011;24244;51.950;5.902;2024-02-15T11:01:44;5.88;;;3.67;;
38465;SDS011;24244;51.950;5.902;2024-02-15T11:04:15;7.45;;;2.90;;
38465;SDS011;24244;51.950;5.902;2024-02-15T11:06:47;7.13;;;3.20;;
38465;SDS011;24244;51.950;5.902;2024-02-15T11:09:17;5.85;;;3.35;;
38465;SDS011;24244;51.950;5.902;2024-02-15T11:11:46;10.88;;;4.28;;
38465;SDS011;24244;51.950;5.902;2024-02-15T11:14:25;7.45;;;3.53;;
38465;SDS011;24244;51.950;5.902;2024-02-15T11:16:55;6.93;;;3.55;;
38465;SDS011;24244;51.950;5.902;2024-02-15T11:19:39;5.85;;;3.67;;
38465;SDS011;24244;51.950;5.902;2024-02-15T11:22:10;8.90;;;3.85;;
38465;SDS011;24244;51.950;5.902;2024-02-15T11:27:12;6.97;;;4.45;;
38465;SDS011;24244;51.950;5.902;2024-02-15T11:29:50;9.63;;;3.97;;
38465;SDS011;24244;51.950;5.902;2024-02-15T11:35:16;8.05;;;3.35;;
38465;SDS011;24244;51.950;5.902;2024-02-15T11:37:55;7.05;;;3.63;;
38465;SDS011;24244;51.950;5.902;2024-02-15T11:40:26;10.43;;;4.15;;
38465;SDS011;24244;51.950;5.902;2024-02-15T11:42:55;8.75;;;3.55;;
38465;SDS011;24244;51.950;5.902;2024-02-15T11:45:27;10.63;;;3.63;;
38465;SDS011;24244;51.950;5.902;2024-02-15T11:48:00;9.50;;;3.90;;
38465;SDS011;24244;51.950;5.902;2024-02-15T11:50:30;9.23;;;3.38;;
38465;SDS011;24244;51.950;5.902;2024-02-15T11:53:04;6.45;;;3.05;;
38465;SDS011;24244;51.950;5.902;2024-02-15T11:55:35;8.35;;;4.22;;
38465;SDS011;24244;51.950;5.902;2024-02-15T11:58:03;10.50;;;3.97;;
38465;SDS011;24244;51.950;5.902;2024-02-15T12:00:38;7.00;;;3.78;;
38465;SDS011;24244;51.950;5.902;2024-02-15T12:03:24;7.97;;;3.20;;
38465;SDS011;24244;51.950;5.902;2024-02-15T12:06:26;8.32;;;3.33;;
38465;SDS011;24244;51.950;5.902;2024-02-15T12:09:15;6.35;;;3.50;;
38465;SDS011;24244;51.950;5.902;2024-02-15T12:12:10;7.05;;;3.85;;
38465;SDS011;24244;51.950;5.902;2024-02-15T12:14:58;7.65;;;3.85;;
38465;SDS011;24244;51.950;5.902;2024-02-15T12:17:44;6.57;;;3.10;;
38465;SDS011;24244;51.950;5.902;2024-02-15T12:20:29;7.60;;;3.13;;
38465;SDS011;24244;51.950;5.902;2024-02-15T12:22:58;8.70;;;3.33;;
38465;SDS011;24244;51.950;5.902;2024-02-15T12:25:28;8.00;;;3.60;;
38465;SDS011;24244;51.950;5.902;2024-02-15T12:28:00;8.20;;;3.67;;
38465;SDS011;24244;51.950;5.902;2024-02-15T12:30:33;8.48;;;3.33;;
38465;SDS011;24244;51.950;5.902;2024-02-15T12:33:10;6.50;;;2.78;;
38465;SDS011;24244;51.950;5.902;2024-02-15T12:35:39;8.25;;;3.22;;
38465;SDS011;24244;51.950;5.902;2024-02-15T12:38:06;6.40;;;3.13;;
38465;SDS011;24244;51.950;5.902;2024-02-15T12:40:37;6.88;;;3.05;;
38465;SDS011;24244;51.950;5.902;2024-02-15T12:43:13;7.35;;;3.97;;
38465;SDS011;24244;51.950;5.902;2024-02-15T12:45:40;8.10;;;4.38;;
38465;SDS011;24244;51.950;5.902;2024-02-15T12:48:08;8.27;;;3.50;;
38465;SDS011;24244;51.950;5.902;2024-02-15T12:50:36;6.57;;;3.20;;
38465;SDS011;24244;51.950;5.902;2024-02-15T12:53:03;7.05;;;3.10;;
38465;SDS011;24244;51.950;5.902;2024-02-15T12:55:33;7.68;;;2.67;;
38465;SDS011;24244;51.950;5.902;2024-02-15T12:58:06;4.82;;;2.92;;
38465;SDS011;24244;51.950;5.902;2024-02-15T13:00:40;8.82;;;2.53;;
38465;SDS011;24244;51.950;5.902;2024-02-15T13:03:08;6.05;;;2.50;;
38465;SDS011;24244;51.950;5.902;2024-02-15T13:05:37;6.95;;;2.70;;
38465;SDS011;24244;51.950;5.902;2024-02-15T13:08:04;6.03;;;2.53;;
38465;SDS011;24244;51.950;5.902;2024-02-15T13:10:37;5.32;;;2.72;;
38465;SDS011;24244;51.950;5.902;2024-02-15T13:13:07;6.20;;;3.45;;
38465;SDS011;24244;51.950;5.902;2024-02-15T13:15:36;6.00;;;2.38;;
38465;SDS011;24244;51.950;5.902;2024-02-15T13:18:04;5.03;;;2.28;;
38465;SDS011;24244;51.950;5.902;2024-02-15T13:20:32;6.43;;;2.72;;
38465;SDS011;24244;51.950;5.902;2024-02-15T13:23:01;8.05;;;2.70;;
38465;SDS011;24244;51.950;5.902;2024-02-15T13:25:34;11.85;;;4.20;;
38465;SDS011;24244;51.950;5.902;2024-02-15T13:28:00;5.10;;;2.63;;
38465;SDS011;24244;51.950;5.902;2024-02-15T13:30:29;4.47;;;2.60;;
38465;SDS011;24244;51.950;5.902;2024-02-15T13:32:56;9.60;;;3.20;;
38465;SDS011;24244;51.950;5.902;2024-02-15T13:35:26;4.15;;;2.13;;
38465;SDS011;24244;51.950;5.902;2024-02-15T13:37:53;6.65;;;1.77;;
38465;SDS011;24244;51.950;5.902;2024-02-15T13:40:21;8.23;;;2.08;;
38465;SDS011;24244;51.950;5.902;2024-02-15T13:42:50;5.70;;;2.17;;
38465;SDS011;24244;51.950;5.902;2024-02-15T13:45:26;6.80;;;2.55;;
38465;SDS011;24244;51.950;5.902;2024-02-15T13:47:58;8.38;;;1.80;;
38465;SDS011;24244;51.950;5.902;2024-02-15T13:50:28;6.13;;;2.83;;
38465;SDS011;24244;51.950;5.902;2024-02-15T13:52:55;6.13;;;1.70;;
38465;SDS011;24244;51.950;5.902;2024-02-15T13:55:24;4.03;;;1.83;;
38465;SDS011;24244;51.950;5.902;2024-02-15T13:57:55;5.90;;;2.38;;
38465;SDS011;24244;51.950;5.902;2024-02-15T14:00:26;7.18;;;2.72;;
38465;SDS011;24244;51.950;5.902;2024-02-15T14:02:58;6.45;;;2.42;;
38465;SDS011;24244;51.950;5.902;2024-02-15T14:05:26;6.28;;;2.83;;
38465;SDS011;24244;51.950;5.902;2024-02-15T14:07:57;7.95;;;2.88;;
38465;SDS011;24244;51.950;5.902;2024-02-15T14:10:26;8.90;;;2.90;;
38465;SDS011;24244;51.950;5.902;2024-02-15T14:12:54;10.43;;;3.63;;
38465;SDS011;24244;51.950;5.902;2024-02-15T14:15:30;5.88;;;3.40;;
38465;SDS011;24244;51.950;5.902;2024-02-15T14:18:02;8.50;;;3.53;;
38465;SDS011;24244;51.950;5.902;2024-02-15T14:20:29;7.82;;;3.65;;
38465;SDS011;24244;51.950;5.902;2024-02-15T14:22:55;6.95;;;3.08;;
38465;SDS011;24244;51.950;5.902;2024-02-15T14:25:23;6.50;;;3.28;;
38465;SDS011;24244;51.950;5.902;2024-02-15T14:27:53;10.73;;;2.85;;
38465;SDS011;24244;51.950;5.902;2024-02-15T14:30:20;4.40;;;2.55;;
38465;SDS011;24244;51.950;5.902;2024-02-15T14:33:07;5.55;;;3.08;;
38465;SDS011;24244;51.950;5.902;2024-02-15T14:35:45;6.78;;;3.17;;
38465;SDS011;24244;51.950;5.902;2024-02-15T14:38:12;8.25;;;3.55;;
38465;SDS011;24244;51.950;5.902;2024-02-15T14:40:40;6.72;;;3.55;;
38465;SDS011;24244;51.950;5.902;2024-02-15T14:43:11;7.75;;;3.08;;
38465;SDS011;24244;51.950;5.902;2024-02-15T14:45:45;6.32;;;2.33;;
38465;SDS011;24244;51.950;5.902;2024-02-15T14:48:13;8.90;;;2.72;;
38465;SDS011;24244;51.950;5.902;2024-02-15T14:50:44;4.95;;;2.20;;
38465;SDS011;24244;51.950;5.902;2024-02-15T14:53:11;5.70;;;2.53;;
38465;SDS011;24244;51.950;5.902;2024-02-15T14:55:39;6.05;;;2.63;;
38465;SDS011;24244;51.950;5.902;2024-02-15T14:58:06;4.80;;;2.42;;
38465;SDS011;24244;51.950;5.902;2024-02-15T15:00:40;7.40;;;3.35;;